Time;durP1;ratioP1;P1;durP2;ratioP2;P2;SDS_P1;SDS_P2;PMS_P1;PMS_P2;Temp;Humidity;BMP_temperature;BMP_pressure;BME280_temperature;BME280_humidity;BME280_pressure;Samples;Min_cycle;Max_cycle;Signal;HPM_P1;HPM_P2
2023/01/13 00:01:53;;;;;;;;;104.00;86.33;;;;;0.73;100.00;100012.75;6279757;20;3687791;-60
2023/01/13 00:04:22;;;;;;;;;114.00;97.00;;;;;0.74;100.00;100004.81;6279618;20;3686731;-59
2023/01/13 00:06:52;;;;;;;;;99.00;67.67;;;;;0.56;100.00;100008.63;6277538;20;3663824;-60
2023/01/13 00:09:22;;;;;;;;;111.67;92.33;;;;;0.67;100.00;100004.94;6312627;20;3698215;-60
2023/01/13 00:11:51;;;;;;;;;101.67;79.67;;;;;0.67;100.00;100004.94;6280600;20;3664829;-59
2023/01/13 00:14:21;;;;;;;;;107.33;83.33;;;;;0.13;100.00;99996.09;6275064;20;3683638;-60
2023/01/13 00:16:51;;;;;;;;;108.50;85.50;;;;;0.62;100.00;99989.16;6281596;20;2811890;-59
2023/01/13 00:19:20;;;;;;;;;99.33;75.67;;;;;0.58;100.00;99995.38;6312183;20;3666981;-60
2023/01/13 00:21:50;;;;;;;;;98.00;71.67;;;;;0.57;100.00;99991.88;6277824;20;3640960;-59
2023/01/13 00:24:20;;;;;;;;;103.00;82.33;;;;;0.55;100.00;99983.09;6313098;20;3672163;-60
2023/01/13 00:26:51;;;;;;;;;108.67;76.33;;;;;0.57;100.00;99985.72;6278612;20;3695158;-59
2023/01/13 00:29:21;;;;;;;;;114.67;89.00;;;;;0.47;100.00;99990.25;6282207;20;3701279;-60
2023/01/13 00:31:51;;;;;;;;;105.67;80.00;;;;;0.38;100.00;99995.72;6279649;20;3691960;-60
2023/01/13 00:34:19;;;;;;;;;111.00;81.00;;;;;0.39;100.00;99985.09;6272838;20;1943062;-60
2023/01/13 00:36:48;;;;;;;;;109.67;85.67;;;;;0.30;100.00;99994.97;6276654;20;3699224;-60
2023/01/13 00:39:17;;;;;;;;;101.00;79.00;;;;;0.08;100.00;100003.19;6280814;20;2794269;-61
2023/01/13 00:44:36;;;;;;;;;104.33;79.33;;;;;0.09;100.00;100004.91;6281914;20;3687802;-60
2023/01/13 00:47:05;;;;;;;;;107.67;87.33;;;;;0.14;100.00;100003.09;6281631;20;3703446;-60
2023/01/13 00:49:35;;;;;;;;;106.33;83.67;;;;;0.10;100.00;99998.72;6282789;20;3700319;-61
2023/01/13 00:52:05;;;;;;;;;107.00;80.33;;;;;0.20;100.00;99991.56;6281099;20;3695072;-60
2023/01/13 00:54:35;;;;;;;;;98.00;74.67;;;;;0.20;100.00;100000.34;6280604;20;3658251;-61
2023/01/13 00:57:04;;;;;;;;;109.33;79.00;;;;;-0.13;100.00;99998.16;6274433;20;3699221;-61
2023/01/13 00:59:34;;;;;;;;;101.33;78.33;;;;;-0.15;100.00;99997.34;6280348;20;3668003;-61
2023/01/13 01:02:03;;;;;;;;;101.00;77.00;;;;;-0.16;100.00;100000.84;6311536;20;2737778;-60
2023/01/13 01:04:33;;;;;;;;;94.00;71.00;;;;;-0.02;100.00;100004.19;6275945;20;3648193;-61
2023/01/13 01:07:03;;;;;;;;;99.67;71.33;;;;;-0.15;100.00;100002.63;6311684;20;3658607;-60
2023/01/13 01:09:33;;;;;;;;;104.00;77.00;;;;;-0.30;100.00;99998.41;6313816;20;3685701;-60
2023/01/13 01:12:03;;;;;;;;;107.67;86.00;;;;;-0.19;100.00;99993.84;6282786;20;3705461;-60
2023/01/13 01:14:33;;;;;;;;;109.00;83.33;;;;;0.03;100.00;99994.47;6277328;20;3711073;-61
2023/01/13 01:17:02;;;;;;;;;107.67;81.00;;;;;-0.22;100.00;99994.75;6274609;20;3695073;-60
2023/01/13 01:19:36;;;;;;;;;108.33;79.00;;;;;-0.08;100.00;99981.41;6279433;20;3679642;-60
2023/01/13 01:22:05;;;;;;;;;115.33;84.67;;;;;-0.01;100.00;99992.75;6277537;20;3704460;-60
2023/01/13 01:24:35;;;;;;;;;102.67;71.33;;;;;0.00;100.00;99983.94;6277867;20;3685788;-60
2023/01/13 01:27:05;;;;;;;;;104.00;80.33;;;;;-0.05;100.00;99988.41;6274471;20;3675274;-60
2023/01/13 01:29:34;;;;;;;;;105.00;75.33;;;;;-0.13;100.00;99983.22;6277683;20;3690863;-61
2023/01/13 01:32:05;;;;;;;;;107.33;77.67;;;;;-0.11;100.00;99983.19;6281422;20;3697197;-60
2023/01/13 01:34:34;;;;;;;;;94.00;70.00;;;;;-0.32;100.00;99977.28;6283239;20;3544078;-60
2023/01/13 01:37:04;;;;;;;;;94.67;71.67;;;;;-0.36;100.00;99969.47;6313819;20;3661726;-60
2023/01/13 01:39:34;;;;;;;;;95.00;72.67;;;;;-0.19;100.00;99971.88;6314933;20;3644136;-61
2023/01/13 01:45:13;;;;;;;;;108.33;88.33;;;;;-0.33;100.00;99961.50;6282548;20;3700254;-60
2023/01/13 01:47:46;;;;;;;;;105.00;76.00;;;;;-0.19;100.00;99959.53;6282364;20;3676443;-60
2023/01/13 01:50:18;;;;;;;;;98.33;74.00;;;;;0.09;100.00;99952.13;6276222;20;3655474;-60
2023/01/13 01:52:56;;;;;;;;;103.67;74.67;;;;;0.10;100.00;99945.94;6313909;20;3683739;-60
2023/01/13 01:55:31;;;;;;;;;81.50;60.00;;;;;0.18;100.00;99948.47;6276499;20;2500258;-60
2023/01/13 01:58:17;;;;;;;;;100.67;75.33;;;;;0.14;100.00;99949.41;6281340;20;3676319;-60
2023/01/13 02:00:47;;;;;;;;;101.33;70.33;;;;;-0.14;100.00;99956.84;6279787;20;3670510;-60
2023/01/13 02:03:18;;;;;;;;;98.00;71.33;;;;;-0.09;100.00;99949.75;6312486;20;3675279;-60
2023/01/13 02:05:47;;;;;;;;;103.67;71.00;;;;;-0.13;100.00;99945.38;6284505;20;3684764;-60
2023/01/13 02:08:18;;;;;;;;;101.00;71.67;;;;;-0.12;100.00;99945.38;6283528;20;3670180;-61
2023/01/13 02:10:53;;;;;;;;;98.00;72.33;;;;;-0.11;100.00;99952.41;6312441;20;3665943;-60
2023/01/13 02:13:23;;;;;;;;;104.33;75.33;;;;;0.04;100.00;99940.75;6307843;20;3686753;-58
2023/01/13 02:16:16;;;;;;;;;100.67;72.67;;;;;-0.19;100.00;99945.50;6280359;20;3676353;-58
2023/01/13 02:19:16;;;;;;;;;95.33;71.33;;;;;-0.20;100.00;99951.66;6311705;20;3657658;-61
2023/01/13 02:22:28;;;;;;;;;97.33;73.33;;;;;-0.43;100.00;99944.91;6306105;20;3666897;-61
2023/01/13 02:25:00;;;;;;;;;98.67;76.33;;;;;-0.45;100.00;99934.41;6313130;20;2889908;-61
2023/01/13 02:28:11;;;;;;;;;98.00;71.67;;;;;-0.29;100.00;99937.72;6313093;20;3661806;-61
2023/01/13 02:34:15;;;;;;;;;91.67;71.67;;;;;-0.11;100.00;99933.06;6282674;20;3653498;-62
2023/01/13 02:37:11;;;;;;;;;98.00;74.00;;;;;-0.15;100.00;99941.94;6313278;20;3654424;-62
2023/01/13 02:40:02;;;;;;;;;95.50;68.50;;;;;-0.20;100.00;99939.34;6307791;20;2883621;-63
2023/01/13 02:45:50;;;;;;;;;93.00;69.00;;;;;-0.39;100.00;99928.16;6314089;20;2894175;-62
2023/01/13 02:48:23;;;;;;;;;91.67;70.00;;;;;-0.26;100.00;99934.16;6314890;20;3638907;-61
2023/01/13 02:51:04;;;;;;;;;103.33;77.67;;;;;-0.13;100.00;99924.28;6309636;20;3689847;-62
2023/01/13 02:53:51;;;;;;;;;95.67;71.33;;;;;-0.05;100.00;99911.88;6279960;20;3658584;-61
2023/01/13 02:56:23;;;;;;;;;96.00;70.33;;;;;-0.26;100.00;99919.19;6310036;20;3660668;-61
2023/01/13 02:58:57;;;;;;;;;92.67;70.33;;;;;-0.03;100.00;99915.34;6312932;20;3652415;-62
2023/01/13 03:01:27;;;;;;;;;91.33;68.33;;;;;0.03;100.00;99915.28;6313070;20;3648227;-60
2023/01/13 03:03:56;;;;;;;;;83.00;65.50;;;;;0.14;100.00;99923.03;6312586;20;2880503;-61
2023/01/13 03:06:53;;;;;;;;;104.00;78.67;;;;;-0.06;100.00;99912.75;6281626;20;3696226;-61
2023/01/13 03:09:38;;;;;;;;;94.67;71.00;;;;;-0.12;100.00;99910.22;6278485;20;3650413;-61
2023/01/13 03:12:28;;;;;;;;;108.00;87.67;;;;;-0.40;100.00;99915.84;6310908;20;3685797;-61
2023/01/13 03:16:12;;;;;;;;;123.67;93.67;;;;;0.04;100.00;99913.50;6275599;20;3691935;-61
2023/01/13 03:19:35;;;;;;;;;87.33;67.00;;;;;-0.27;100.00;99912.16;6278590;20;3648289;-61
2023/01/13 03:22:26;;;;;;;;;102.67;71.00;;;;;-0.29;100.00;99911.34;6309524;20;3681480;-61
2023/01/13 03:25:27;;;;;;;;;94.50;68.00;;;;;-0.06;100.00;99904.84;6280446;20;2872179;-61
2023/01/13 03:28:24;;;;;;;;;97.00;72.00;;;;;-0.24;100.00;99895.41;6280958;20;3655513;-61
2023/01/13 03:31:06;;;;;;;;;92.00;71.00;;;;;-0.35;100.00;99898.22;6310882;20;2894046;-62
2023/01/13 03:34:08;;;;;;;;;88.67;71.00;;;;;-0.19;100.00;99901.50;6310321;20;2883846;-61
2023/01/13 03:36:42;;;;;;;;;92.00;71.33;;;;;-0.09;100.00;99899.59;6310322;20;3634684;-61
2023/01/13 03:39:24;;;;;;;;;98.00;71.67;;;;;-0.03;100.00;99905.69;6311092;20;3660646;-62
2023/01/13 03:42:01;;;;;;;;;64.50;45.00;;;;;-0.24;100.00;99906.88;6313645;20;2862816;-62
2023/01/13 03:44:43;;;;;;;;;95.33;71.67;;;;;-0.24;100.00;99912.16;6282931;20;3654559;-61
2023/01/13 03:47:43;;;;;;;;;101.33;79.33;;;;;-0.03;100.00;99905.69;6312762;20;3672199;-62
2023/01/13 03:50:26;;;;;;;;;67.50;57.00;;;;;-0.45;100.00;99909.78;6306252;20;2501551;-61
2023/01/13 03:53:03;;;;;;;;;105.00;81.00;;;;;-0.49;100.00;99908.94;6274780;20;3689860;-61
2023/01/13 03:55:43;;;;;;;;;98.33;72.67;;;;;-0.31;100.00;99909.59;6284450;20;3664849;-61
2023/01/13 03:58:38;;;;;;;;;95.67;68.67;;;;;-0.55;100.00;99900.25;6279320;20;2895125;-61
2023/01/13 04:01:26;;;;;;;;;85.33;65.33;;;;;-0.02;100.00;99898.63;6311131;20;2885787;-61
2023/01/13 04:04:36;;;;;;;;;104.67;82.00;;;;;-0.30;100.00;99899.00;6313287;20;3688786;-61
2023/01/13 04:07:47;;;;;;;;;121.33;94.00;;;;;-0.14;100.00;99896.16;6280549;20;3697142;-61
2023/01/13 04:10:32;;;;;;;;;96.00;73.67;;;;;-0.41;100.00;99902.72;6280236;20;3649225;-62
2023/01/13 04:13:09;;;;;;;;;87.33;69.00;;;;;-0.02;100.00;99898.63;6305842;20;3640973;-61
2023/01/13 04:15:43;;;;;;;;;96.67;69.33;;;;;-0.09;100.00;99895.19;6310005;20;3658673;-61
2023/01/13 04:18:28;;;;;;;;;107.67;86.33;;;;;-0.45;100.00;99902.75;6307085;20;3698211;-61
2023/01/13 04:21:00;;;;;;;;;117.67;91.33;;;;;-0.40;100.00;99894.75;6279023;20;3692038;-61
2023/01/13 04:23:31;;;;;;;;;97.00;71.00;;;;;-0.33;100.00;99896.44;6281104;20;3667051;-60
2023/01/13 04:26:01;;;;;;;;;99.00;74.00;;;;;-0.58;100.00;99900.28;6314257;20;3660239;-60
2023/01/13 04:28:32;;;;;;;;;101.67;73.33;;;;;-0.34;100.00;99905.25;6281427;20;3680459;-62
2023/01/13 04:31:01;;;;;;;;;105.67;77.00;;;;;-0.19;100.00;99900.63;6303489;20;3680555;-61
2023/01/13 04:33:31;;;;;;;;;96.33;72.00;;;;;-0.27;100.00;99909.53;6278399;20;3664931;-61
2023/01/13 04:36:01;;;;;;;;;92.00;67.00;;;;;-0.58;100.00;99908.19;6309838;20;3640890;-62
2023/01/13 04:38:30;;;;;;;;;91.33;66.00;;;;;-0.41;100.00;99906.22;6312829;20;3658595;-61
2023/01/13 04:41:00;;;;;;;;;92.00;68.67;;;;;-0.22;100.00;99915.59;6307739;20;3628532;-61
2023/01/13 04:43:29;;;;;;;;;95.33;72.33;;;;;-0.49;100.00;99910.72;6310048;20;3650284;-60
2023/01/13 04:45:59;;;;;;;;;99.00;81.00;;;;;-0.31;100.00;99915.75;6310193;20;3664003;-60
2023/01/13 04:48:29;;;;;;;;;93.33;69.33;;;;;-0.20;100.00;99920.00;6308765;20;3642105;-62
2023/01/13 04:50:59;;;;;;;;;92.33;69.67;;;;;-0.36;100.00;99909.66;6312842;20;2892076;-61
2023/01/13 04:53:37;;;;;;;;;85.00;67.67;;;;;-0.32;100.00;99915.75;6308523;20;3623412;-61
2023/01/13 04:56:06;;;;;;;;;96.00;71.00;;;;;-0.17;100.00;99909.41;6310644;20;2823216;-60
2023/01/13 04:58:34;;;;;;;;;73.00;61.00;;;;;-0.32;100.00;99919.25;6274320;20;2500317;-61
2023/01/13 05:01:04;;;;;;;;;92.67;69.00;;;;;-0.26;100.00;99919.19;6273771;20;3649205;-60
2023/01/13 05:03:33;;;;;;;;;91.00;66.00;;;;;-0.23;100.00;99913.00;6308644;20;3660657;-60
2023/01/13 05:06:03;;;;;;;;;89.00;65.00;;;;;-0.22;100.00;99915.59;6314310;20;3664851;-60
2023/01/13 05:08:32;;;;;;;;;90.00;64.00;;;;;-0.31;100.00;99899.91;6309875;20;2755532;-60
2023/01/13 05:16:58;;;;;;;;;87.00;68.00;;;;;-0.35;100.00;99929.84;6278693;20;2884655;-60
2023/01/13 05:19:30;;;;;;;;;78.00;56.67;;;;;-0.11;100.00;99927.78;6309392;20;2887879;-61
2023/01/13 05:27:38;;;;;;;;;79.00;65.50;;;;;-0.33;100.00;99928.09;6310028;20;2865962;-61
2023/01/13 05:30:08;;;;;;;;;86.00;65.33;;;;;-0.33;100.00;99922.81;6278958;20;3648265;-60
2023/01/13 05:32:36;;;;;;;;;73.00;51.50;;;;;-0.30;100.00;99921.88;6307107;20;2500421;-61
2023/01/13 05:35:05;;;;;;;;;84.00;66.00;;;;;-0.34;100.00;99936.00;6278544;20;2869161;-60
2023/01/13 05:37:33;;;;;;;;;84.00;64.00;;;;;-0.65;100.00;99935.53;6276548;20;2482586;-60
2023/01/13 05:43:18;;;;;;;;;84.00;65.00;;;;;-0.62;100.00;99935.50;6312577;20;2889917;-60
2023/01/13 05:45:52;;;;;;;;;84.67;62.67;;;;;-0.40;100.00;99942.22;6309878;20;3637841;-60
2023/01/13 05:48:30;;;;;;;;;87.00;64.33;;;;;-0.41;100.00;99935.22;6311535;20;2886361;-60
2023/01/13 05:51:01;;;;;;;;;93.67;68.33;;;;;-0.12;100.00;99944.53;6306622;20;3647217;-61
2023/01/13 05:53:32;;;;;;;;;93.67;68.67;;;;;-0.18;100.00;99947.25;6302989;20;3634712;-61
2023/01/13 05:56:07;;;;;;;;;89.50;66.00;;;;;-0.23;100.00;99940.25;6306100;20;3546077;-60
2023/01/13 05:58:36;;;;;;;;;90.67;68.00;;;;;-0.28;100.00;99936.81;6306290;20;3651445;-60
2023/01/13 06:01:09;;;;;;;;;97.33;70.67;;;;;-0.48;100.00;99944.97;6302330;20;3655671;-60
2023/01/13 06:03:39;;;;;;;;;88.67;65.00;;;;;-0.43;100.00;99942.28;6305951;20;3663839;-61
2023/01/13 06:06:08;;;;;;;;;98.00;72.50;;;;;-0.55;100.00;99939.81;6308148;20;3528462;-60
2023/01/13 06:08:38;;;;;;;;;91.00;63.33;;;;;-0.45;100.00;99947.59;6306628;20;3669095;-61
2023/01/13 06:11:08;;;;;;;;;91.67;66.00;;;;;-0.27;100.00;99943.81;6309516;20;3660784;-60
2023/01/13 06:13:38;;;;;;;;;93.33;71.33;;;;;-0.21;100.00;99953.44;6309593;20;3643021;-60
2023/01/13 06:16:08;;;;;;;;;91.00;64.33;;;;;-0.39;100.00;99951.03;6309351;20;3657596;-60
2023/01/13 06:18:37;;;;;;;;;88.33;68.00;;;;;-0.58;100.00;99950.38;6309250;20;2881776;-60
2023/01/13 06:21:07;;;;;;;;;91.67;68.67;;;;;-0.56;100.00;99952.09;6317829;20;2882809;-60
2023/01/13 06:23:37;;;;;;;;;101.00;71.33;;;;;-0.30;100.00;99959.69;6317892;20;3684640;-60
2023/01/13 06:26:24;;;;;;;;;101.00;75.00;;;;;-0.37;100.00;99963.31;6282460;20;2836738;-60
2023/01/13 06:28:54;;;;;;;;;101.33;75.33;;;;;-0.40;100.00;99967.75;6282403;20;3671175;-60
2023/01/13 06:31:27;;;;;;;;;95.67;73.00;;;;;-0.19;100.00;99972.75;6277454;20;3645056;-60
2023/01/13 06:34:04;;;;;;;;;96.33;70.33;;;;;-0.11;100.00;99970.88;6313365;20;3659646;-60
2023/01/13 06:36:47;;;;;;;;;92.67;69.00;;;;;-0.46;100.00;99969.56;6313093;20;3640922;-60
2023/01/13 06:39:24;;;;;;;;;101.67;75.33;;;;;-0.52;100.00;99959.09;6316391;20;3662751;-60
2023/01/13 06:44:45;;;;;;;;;103.67;71.33;;;;;-0.32;100.00;99958.84;6312914;20;3692951;-60
2023/01/13 06:47:14;;;;;;;;;104.00;78.00;;;;;-0.15;100.00;99958.63;6277360;20;3683573;-61
2023/01/13 06:49:44;;;;;;;;;93.67;69.33;;;;;-0.18;100.00;99968.38;6278988;20;3665984;-61
2023/01/13 06:52:14;;;;;;;;;101.00;71.00;;;;;-0.02;100.00;99972.53;6316898;20;3677340;-60
2023/01/13 06:54:43;;;;;;;;;95.33;70.00;;;;;-0.26;100.00;99966.69;6313416;20;3645065;-60
2023/01/13 06:57:13;;;;;;;;;86.00;66.00;;;;;-0.15;100.00;99973.59;6314962;20;3645082;-60
2023/01/13 06:59:42;;;;;;;;;100.33;70.00;;;;;-0.12;100.00;99973.53;6313522;20;2892149;-60
2023/01/13 07:02:12;;;;;;;;;87.33;60.67;;;;;0.11;100.00;99970.59;6314492;20;3663808;-60
2023/01/13 07:04:43;;;;;;;;;77.67;54.00;;;;;0.16;100.00;99974.03;6314221;20;2885774;-60
2023/01/13 07:07:13;;;;;;;;;96.00;70.00;;;;;0.25;100.00;99983.59;6313462;20;3662762;-60
2023/01/13 07:09:43;;;;;;;;;103.67;77.33;;;;;0.15;100.00;99970.50;6310869;20;3675263;-60
2023/01/13 07:12:12;;;;;;;;;100.67;77.67;;;;;0.41;100.00;99969.25;6282002;20;3680509;-60
2023/01/13 07:17:30;;;;;;;;;101.33;73.00;;;;;0.37;100.00;99978.09;6279718;20;3675423;-60
2023/01/13 07:20:00;;;;;;;;;106.67;91.33;;;;;0.28;100.00;99972.97;6276603;20;3681694;-61
2023/01/13 07:22:30;;;;;;;;;101.33;75.33;;;;;0.28;100.00;99973.84;6278413;20;3684701;-60
2023/01/13 07:24:59;;;;;;;;;92.00;70.33;;;;;0.36;100.00;99963.16;6284016;20;3654477;-60
2023/01/13 07:27:29;;;;;;;;;97.33;69.00;;;;;0.32;100.00;99970.28;6313064;20;3659674;-60
2023/01/13 07:29:58;;;;;;;;;90.00;68.00;;;;;0.37;100.00;99970.19;6314295;20;3657608;-61
2023/01/13 07:32:27;;;;;;;;;81.50;65.00;;;;;0.48;100.00;99970.03;6313071;20;2875383;-60
2023/01/13 07:35:03;;;;;;;;;89.00;64.67;;;;;0.52;100.00;99972.59;6282119;20;3670030;-60
2023/01/13 07:37:35;;;;;;;;;90.67;67.67;;;;;0.35;100.00;99959.66;6313311;20;3647227;-61
2023/01/13 07:40:07;;;;;;;;;91.67;67.33;;;;;0.39;100.00;99961.34;6310597;20;3646111;-61
2023/01/13 07:45:26;;;;;;;;;98.67;71.00;;;;;0.41;100.00;99980.69;6312889;20;3675259;-61
2023/01/13 07:47:56;;;;;;;;;85.67;64.67;;;;;0.52;100.00;99993.72;6279361;20;3649223;-61
2023/01/13 07:50:25;;;;;;;;;91.67;68.00;;;;;0.37;100.00;99983.38;6307823;20;3643047;-61
2023/01/13 07:52:58;;;;;;;;;93.67;68.67;;;;;0.40;100.00;99978.94;6312972;20;3651432;-60
2023/01/13 07:55:27;;;;;;;;;88.67;66.33;;;;;0.63;100.00;99980.31;6313311;20;3639859;-61
2023/01/13 07:57:57;;;;;;;;;79.67;62.33;;;;;0.61;100.00;99984.78;6307506;20;2883869;-61
2023/01/13 08:00:26;;;;;;;;;83.67;65.00;;;;;0.72;100.00;99979.31;6307570;20;3638167;-60
2023/01/13 08:02:59;;;;;;;;;90.67;68.33;;;;;0.72;100.00;99974.91;6313410;20;3639875;-61
2023/01/13 08:05:28;;;;;;;;;84.67;62.33;;;;;0.71;100.00;99988.13;6313181;20;2893095;-60
2023/01/13 08:07:58;;;;;;;;;83.00;64.67;;;;;0.68;100.00;99988.19;6313692;20;3635769;-61
2023/01/13 08:10:27;;;;;;;;;83.67;61.33;;;;;0.87;100.00;99989.63;6314500;20;3641947;-60
2023/01/13 08:15:49;;;;;;;;;88.33;68.00;;;;;0.99;100.00;99994.69;6313842;20;3660808;-61
2023/01/13 08:18:21;;;;;;;;;81.00;62.50;;;;;1.05;100.00;100001.63;6280680;20;2890989;-61
2023/01/13 08:20:52;;;;;;;;;73.33;58.00;;;;;1.05;100.00;100001.63;6278055;20;3630516;-61
2023/01/13 08:23:22;;;;;;;;;80.33;57.33;;;;;0.90;100.00;99999.28;6309610;20;3641938;-61
2023/01/13 08:25:52;;;;;;;;;75.67;57.33;;;;;1.20;100.00;100004.00;6310940;20;3641927;-58
2023/01/13 08:28:23;;;;;;;;;82.00;59.67;;;;;0.90;100.00;100000.16;6316620;20;3654436;-61
2023/01/13 08:30:53;;;;;;;;;76.33;59.33;;;;;1.10;100.00;100000.66;6307899;20;2883703;-61
2023/01/13 08:33:23;;;;;;;;;80.67;60.67;;;;;0.89;100.00;99995.75;6313684;20;3653416;-61
2023/01/13 08:35:52;;;;;;;;;79.33;58.33;;;;;1.10;100.00;100008.59;6313865;20;2899295;-61
2023/01/13 08:38:22;;;;;;;;;76.00;60.50;;;;;1.33;100.00;100006.44;6311807;20;2875547;-62
2023/01/13 08:40:51;;;;;;;;;67.50;57.50;;;;;1.24;100.00;100015.44;6277644;20;2873219;-62
2023/01/13 08:43:21;;;;;;;;;71.67;55.67;;;;;1.23;100.00;100009.25;6284102;20;2888005;-63
2023/01/13 08:46:03;;;;;;;;;70.50;53.50;;;;;1.41;100.00;100009.81;6309132;20;2500341;-61
2023/01/13 08:48:33;;;;;;;;;78.67;57.00;;;;;1.32;100.00;100016.16;6282862;20;3645059;-59
2023/01/13 08:51:07;;;;;;;;;68.00;51.67;;;;;1.42;100.00;100020.38;6305818;20;2879481;-60
2023/01/13 08:53:36;;;;;;;;;66.00;51.50;;;;;1.42;100.00;100017.72;6312236;20;2879571;-63
2023/01/13 08:56:10;;;;;;;;;74.00;56.00;;;;;1.33;100.00;100031.13;6278550;20;3638788;-63
2023/01/13 08:58:39;;;;;;;;;70.00;56.50;;;;;1.57;100.00;100023.63;6309829;20;2870112;-61
2023/01/13 09:01:16;;;;;;;;;75.33;57.00;;;;;1.41;100.00;100018.63;6280664;20;2889863;-62
2023/01/13 09:03:45;;;;;;;;;68.00;53.00;;;;;1.51;100.00;100025.47;6309363;20;2885747;-63
2023/01/13 09:06:14;;;;;;;;;80.33;58.00;;;;;1.39;100.00;100025.69;6281986;20;3646119;-63
2023/01/13 09:08:43;;;;;;;;;69.50;54.00;;;;;1.39;100.00;100014.25;6312038;20;2866943;-63
2023/01/13 09:14:25;;;;;;;;;69.33;55.00;;;;;1.65;100.00;100029.63;6310721;20;3639875;-63
2023/01/13 09:16:55;;;;;;;;;73.67;55.33;;;;;1.68;100.00;100026.91;6312354;20;3643093;-62
2023/01/13 09:19:27;;;;;;;;;63.33;49.00;;;;;1.39;100.00;100025.69;6307429;20;2878577;-60
2023/01/13 09:21:57;;;;;;;;;68.00;52.33;;;;;1.51;100.00;100024.63;6311083;20;3629415;-61
2023/01/13 09:24:27;;;;;;;;;69.00;48.67;;;;;1.48;100.00;100020.25;6311972;20;2882671;-61
2023/01/13 09:26:57;;;;;;;;;69.00;52.00;;;;;1.45;100.00;100024.72;6311966;20;2882590;-61
2023/01/13 09:29:26;;;;;;;;;70.33;53.33;;;;;1.70;100.00;100014.53;6312553;20;2884892;-62
2023/01/13 09:31:56;;;;;;;;;67.67;51.67;;;;;1.94;100.00;100013.16;6309931;20;2877508;-62
2023/01/13 09:37:14;;;;;;;;;67.33;50.33;;;;;1.81;100.00;100011.66;6279803;20;3630475;-62
2023/01/13 09:39:43;;;;;;;;;62.00;47.00;;;;;1.96;100.00;100011.34;6302498;20;2865418;-63
2023/01/13 09:46:42;;;;;;;;;66.33;49.33;;;;;2.38;100.00;100000.72;6307279;20;2885805;-62
2023/01/13 09:48:58;;;;;;;;;67.00;51.00;;;;;2.32;100.00;99995.56;6309296;20;2877413;-62
2023/01/13 09:51:37;;;;;;;;;69.00;50.67;;;;;2.15;100.00;99990.63;6314060;20;2888872;-62
2023/01/13 09:54:22;;;;;;;;;65.00;48.50;;;;;2.27;100.00;99995.66;6315483;20;2867143;-64
2023/01/13 09:56:51;;;;;;;;;64.50;50.00;;;;;2.37;100.00;99986.59;6281215;20;2856585;-64
2023/01/13 09:59:31;;;;;;;;;65.33;50.33;;;;;2.38;100.00;99983.03;6284454;20;2872372;-64
2023/01/13 10:02:35;;;;;;;;;72.67;55.00;;;;;2.06;100.00;99989.06;6316465;20;2881104;-63
2023/01/13 10:05:30;;;;;;;;;64.00;51.50;;;;;2.33;100.00;99987.56;6315172;20;2866958;-64
2023/01/13 10:08:14;;;;;;;;;68.50;54.00;;;;;2.36;100.00;99983.97;6282765;20;2868094;-63
2023/01/13 10:10:50;;;;;;;;;63.00;49.00;;;;;2.35;100.00;99990.19;6282896;20;2870243;-64
2023/01/13 10:13:25;;;;;;;;;65.50;51.50;;;;;2.29;100.00;99985.91;6316317;20;2873287;-63
2023/01/13 10:16:30;;;;;;;;;56.00;45.50;;;;;2.09;100.00;99982.81;6283792;20;2854444;-63
2023/01/13 10:19:18;;;;;;;;;65.00;50.00;;;;;2.53;100.00;99992.41;6283403;20;2876441;-62
2023/01/13 10:22:37;;;;;;;;;68.00;53.50;;;;;2.11;100.00;99997.78;6282421;20;2496139;-63
2023/01/13 10:25:35;;;;;;;;;62.00;48.00;;;;;2.62;100.00;100000.13;6282661;20;2873213;-63
2023/01/13 10:28:14;;;;;;;;;61.50;48.00;;;;;2.78;100.00;99991.81;6286399;20;2855496;-63
2023/01/13 10:30:47;;;;;;;;;63.50;50.00;;;;;2.52;100.00;99995.94;6283646;20;2873938;-63
2023/01/13 10:33:27;;;;;;;;;65.50;50.50;;;;;2.89;100.00;99991.53;6285907;20;2875267;-63
2023/01/13 10:36:11;;;;;;;;;56.50;45.00;;;;;2.61;100.00;99987.78;6283537;20;2870067;-63
2023/01/13 10:38:48;;;;;;;;;63.00;48.50;;;;;3.07;100.00;99988.41;6285284;20;2869047;-63
2023/01/13 10:41:26;;;;;;;;;62.00;48.00;;;;;3.09;100.00;99991.91;6287199;20;2871226;-64
2023/01/13 10:44:04;;;;;;;;;62.50;45.50;;;;;3.07;100.00;99989.25;6283496;20;2494032;-64
2023/01/13 10:46:57;;;;;;;;;61.67;45.67;;;;;3.10;100.00;99983.00;6287966;20;2881677;-63
2023/01/13 10:49:37;;;;;;;;;47.00;37.00;;;;;3.27;100.00;99975.50;6311700;20;3633570;-64
2023/01/13 10:52:28;;;;;;;;;53.50;42.50;;;;;3.29;100.00;99973.66;6314781;20;2859351;-64
2023/01/13 10:54:58;;;;;;;;;63.67;45.33;;;;;3.17;100.00;99976.63;6284094;20;2883739;-62
2023/01/13 10:57:28;;;;;;;;;51.67;41.00;;;;;3.50;100.00;99971.31;6314983;20;2871198;-64
2023/01/13 10:59:57;;;;;;;;;57.50;45.50;;;;;3.49;100.00;99965.13;6313196;20;2872190;-64
2023/01/13 11:02:32;;;;;;;;;49.00;41.00;;;;;3.46;100.00;99964.38;6285214;20;2848194;-61
2023/01/13 11:05:24;;;;;;;;;48.00;39.00;;;;;3.56;100.00;99954.38;6282288;20;2864883;-64
2023/01/13 11:07:55;;;;;;;;;45.00;39.00;;;;;3.40;100.00;99961.91;6282896;20;2566965;-63
2023/01/13 11:10:31;;;;;;;;;51.67;40.33;;;;;3.57;100.00;99951.66;6280739;20;2861799;-63
2023/01/13 11:13:29;;;;;;;;;46.50;39.00;;;;;3.74;100.00;99965.31;6312077;20;2848199;-64
2023/01/13 11:16:13;;;;;;;;;52.00;42.50;;;;;3.68;100.00;99959.31;6281693;20;2860722;-64
2023/01/13 11:19:17;;;;;;;;;50.00;40.50;;;;;3.78;100.00;99965.22;6281551;20;2851391;-64
2023/01/13 11:22:34;;;;;;;;;43.50;37.50;;;;;3.95;100.00;99957.63;6282708;20;2845120;-64
2023/01/13 11:25:34;;;;;;;;;41.00;34.00;;;;;3.82;100.00;99961.53;6281999;20;2867989;-64
2023/01/13 11:28:30;;;;;;;;;49.50;39.00;;;;;3.98;100.00;99946.91;6284601;20;2855548;-64
2023/01/13 11:31:24;;;;;;;;;51.33;39.00;;;;;3.72;100.00;99945.91;6281477;20;3625265;-64
2023/01/13 11:34:35;;;;;;;;;55.33;40.00;;;;;3.83;100.00;99942.91;6312400;20;2860744;-64
2023/01/13 11:37:30;;;;;;;;;54.67;39.33;;;;;3.88;100.00;99945.44;6315105;20;2873323;-63
2023/01/13 11:40:32;;;;;;;;;53.50;37.50;;;;;4.00;100.00;99934.44;6309632;20;2862764;-64
2023/01/13 11:43:22;;;;;;;;;33.50;31.00;;;;;3.89;100.00;99939.22;6282663;20;2847204;-64
2023/01/13 11:45:59;;;;;;;;;52.33;37.00;;;;;3.65;100.00;99939.03;6279562;20;3625388;-63
2023/01/13 11:48:36;;;;;;;;;50.67;40.00;;;;;4.02;100.00;99940.56;6313162;20;2863870;-64
2023/01/13 11:51:25;;;;;;;;;56.00;43.00;;;;;4.13;100.00;99926.94;6314315;20;2873260;-64
2023/01/13 11:54:23;;;;;;;;;49.50;40.00;;;;;3.99;100.00;99921.22;6315199;20;2850273;-64
2023/01/13 11:57:00;;;;;;;;;47.50;36.00;;;;;4.16;100.00;99919.78;6279800;20;2864927;-63
2023/01/13 12:00:16;;;;;;;;;44.00;39.00;;;;;4.13;100.00;99906.59;6280368;20;2837831;-64
2023/01/13 12:03:09;;;;;;;;;43.00;37.00;;;;;4.17;100.00;99907.34;6279890;20;2870174;-63
2023/01/13 12:05:50;;;;;;;;;50.67;40.00;;;;;4.30;100.00;99913.16;6311700;20;2851379;-63
2023/01/13 12:09:10;;;;;;;;;48.00;40.50;;;;;4.22;100.00;99907.22;6314045;20;2846269;-63
2023/01/13 12:12:21;;;;;;;;;40.00;30.00;;;;;4.14;100.00;99908.31;6282080;20;3621081;-63
2023/01/13 12:15:02;;;;;;;;;43.00;38.00;;;;;4.04;100.00;99900.69;6301751;20;2865023;-63
2023/01/13 12:18:27;;;;;;;;;42.67;38.00;;;;;4.23;100.00;99898.31;6311541;20;2877591;-63
2023/01/13 12:21:27;;;;;;;;;55.00;40.00;;;;;4.07;100.00;99888.16;6308661;20;2855613;-64
2023/01/13 12:24:09;;;;;;;;;54.33;39.33;;;;;4.36;100.00;99889.00;6279952;20;2872143;-63
2023/01/13 12:26:54;;;;;;;;;48.33;39.33;;;;;4.15;100.00;99878.16;6312651;20;2870161;-63
2023/01/13 12:29:36;;;;;;;;;51.00;41.00;;;;;4.04;100.00;99861.69;6311726;20;2843116;-63